createdAt,value
2022-08-25T00:00:14.500Z,3.40
2022-08-25T00:02:55.406Z,3.42
2022-08-25T00:05:27.700Z,3.30
2022-08-25T00:07:57.799Z,3.30
2022-08-25T00:10:25.842Z,3.40
2022-08-25T00:12:54.457Z,3.20
2022-08-25T00:15:23.944Z,3.45
2022-08-25T00:17:53.453Z,3.47
2022-08-25T00:20:22.708Z,3.30
2022-08-25T00:22:50.626Z,3.42
2022-08-25T00:25:18.946Z,3.50
2022-08-25T00:27:47.721Z,3.60
2022-08-25T00:30:16.941Z,3.42
2022-08-25T00:32:50.484Z,3.40
2022-08-25T00:35:27.147Z,3.40
2022-08-25T00:37:55.111Z,3.30
2022-08-25T00:40:23.697Z,3.30
2022-08-25T00:42:51.646Z,3.30
2022-08-25T00:45:20.103Z,3.20
2022-08-25T00:47:48.737Z,3.40
2022-08-25T00:50:17.372Z,3.22
2022-08-25T00:52:48.952Z,3.20
2022-08-25T00:55:21.647Z,3.30
2022-08-25T00:57:51.589Z,3.10
2022-08-25T01:00:25.197Z,3.30
2022-08-25T01:02:53.282Z,3.30
2022-08-25T01:05:21.615Z,3.30
2022-08-25T01:07:58.560Z,3.40
2022-08-25T01:10:29.146Z,3.40
2022-08-25T01:13:02.838Z,3.40
2022-08-25T01:15:31.609Z,3.40
2022-08-25T01:18:00.279Z,3.30
2022-08-25T01:20:29.868Z,3.30
2022-08-25T01:23:00.810Z,3.40
2022-08-25T01:25:37.257Z,3.40
2022-08-25T01:28:06.686Z,3.42
2022-08-25T01:30:35.019Z,3.30
2022-08-25T01:33:05.228Z,3.20
2022-08-25T01:35:33.241Z,3.40
2022-08-25T01:38:02.864Z,3.40
2022-08-25T01:40:31.467Z,3.40
2022-08-25T01:43:04.968Z,3.30
2022-08-25T01:45:32.811Z,3.40
2022-08-25T01:48:00.783Z,3.50
2022-08-25T01:50:29.172Z,3.40
2022-08-25T01:53:01.395Z,3.50
2022-08-25T01:55:51.466Z,3.40
2022-08-25T01:58:19.972Z,3.35
2022-08-25T02:00:48.386Z,3.30
2022-08-25T02:03:18.666Z,3.40
2022-08-25T02:05:48.114Z,3.50
2022-08-25T02:08:16.979Z,3.38
2022-08-25T02:10:46.539Z,3.42
2022-08-25T02:13:14.666Z,3.40
2022-08-25T02:15:44.468Z,3.40
2022-08-25T02:18:12.960Z,3.33
2022-08-25T02:20:41.002Z,3.30
2022-08-25T02:23:09.212Z,3.45
2022-08-25T02:25:39.204Z,3.40
2022-08-25T02:28:09.546Z,3.25
2022-08-25T02:30:38.155Z,3.20
2022-08-25T02:33:06.479Z,3.40
2022-08-25T02:35:34.523Z,3.40
2022-08-25T02:38:02.410Z,3.50
2022-08-25T02:40:30.680Z,3.40
2022-08-25T02:42:58.738Z,3.40
2022-08-25T02:45:28.121Z,3.40
2022-08-25T02:47:56.187Z,3.30
2022-08-25T02:50:24.929Z,3.40
2022-08-25T02:52:53.283Z,3.60
2022-08-25T02:55:21.244Z,3.30
2022-08-25T02:57:49.490Z,3.40
2022-08-25T03:00:18.519Z,3.40
2022-08-25T03:02:48.191Z,3.20
2022-08-25T03:06:19.376Z,3.30
2022-08-25T03:08:47.715Z,3.33
2022-08-25T03:11:16.015Z,3.20
2022-08-25T03:13:44.162Z,3.10
2022-08-25T03:16:12.559Z,3.25
2022-08-25T03:18:43.371Z,3.28
2022-08-25T03:21:12.756Z,3.30
2022-08-25T03:23:42.047Z,3.08
2022-08-25T03:26:28.211Z,3.10
2022-08-25T03:28:56.670Z,3.40
2022-08-25T03:31:26.260Z,3.30
2022-08-25T03:33:55.623Z,2.88
2022-08-25T03:36:26.511Z,3.17
2022-08-25T03:38:55.040Z,3.20
2022-08-25T03:41:27.740Z,3.13
2022-08-25T03:43:56.987Z,3.20
2022-08-25T03:46:31.120Z,3.15
2022-08-25T03:49:02.503Z,3.20
2022-08-25T03:51:32.495Z,3.22
2022-08-25T03:54:01.164Z,3.40
2022-08-25T03:56:29.123Z,3.28
2022-08-25T03:58:57.716Z,3.20
2022-08-25T04:01:26.965Z,3.30
2022-08-25T04:03:55.036Z,3.22
2022-08-25T04:06:24.521Z,3.28
2022-08-25T04:08:53.554Z,3.10
2022-08-25T04:11:24.198Z,3.30
2022-08-25T04:13:53.712Z,3.30
2022-08-25T04:16:24.319Z,3.28
2022-08-25T04:18:53.220Z,3.40
2022-08-25T04:21:21.868Z,3.40
2022-08-25T04:23:53.443Z,3.55
2022-08-25T04:26:23.474Z,3.55
2022-08-25T04:28:51.704Z,3.33
2022-08-25T04:31:21.691Z,3.40
2022-08-25T04:33:49.659Z,3.40
2022-08-25T04:36:19.451Z,3.25
2022-08-25T04:38:49.602Z,3.30
2022-08-25T04:41:20.482Z,3.40
2022-08-25T04:43:48.521Z,3.70
2022-08-25T04:46:20.181Z,3.53
2022-08-25T04:48:49.168Z,3.50
2022-08-25T04:51:18.987Z,3.40
2022-08-25T04:53:47.359Z,3.28
2022-08-25T04:56:17.332Z,3.50
2022-08-25T04:58:47.304Z,3.40
2022-08-25T05:01:18.385Z,3.50
2022-08-25T05:03:47.154Z,3.45
2022-08-25T05:06:16.418Z,3.20
2022-08-25T05:08:45.864Z,3.60
2022-08-25T05:11:17.590Z,3.40
2022-08-25T05:13:51.502Z,3.60
2022-08-25T05:16:21.025Z,3.38
2022-08-25T05:18:49.667Z,3.50
2022-08-25T05:21:25.355Z,3.60
2022-08-25T05:23:57.726Z,3.53
2022-08-25T05:26:27.376Z,3.28
2022-08-25T05:28:57.339Z,3.55
2022-08-25T05:31:26.290Z,3.70
2022-08-25T05:33:56.276Z,3.60
2022-08-25T05:36:25.763Z,3.45
2022-08-25T05:38:53.941Z,3.50
2022-08-25T05:41:23.812Z,3.60
2022-08-25T05:43:51.940Z,3.50
2022-08-25T05:46:21.924Z,3.70
2022-08-25T05:48:50.576Z,3.55
2022-08-25T05:51:19.810Z,3.67
2022-08-25T05:53:49.850Z,3.55
2022-08-25T05:56:18.527Z,3.30
2022-08-25T05:58:48.554Z,3.40
2022-08-25T06:01:49.583Z,3.60
2022-08-25T06:04:18.225Z,3.60
2022-08-25T06:06:46.125Z,3.53
2022-08-25T06:09:15.416Z,3.50
2022-08-25T06:11:43.532Z,3.70
2022-08-25T06:14:12.099Z,3.47
2022-08-25T06:16:41.745Z,3.60
2022-08-25T06:19:11.279Z,3.28
2022-08-25T06:21:43.451Z,3.40
2022-08-25T06:24:15.439Z,3.53
2022-08-25T06:26:44.259Z,3.40
2022-08-25T06:29:13.998Z,3.50
2022-08-25T06:31:44.165Z,3.40
2022-08-25T06:34:12.594Z,3.63
2022-08-25T06:36:40.587Z,3.60
2022-08-25T06:39:09.189Z,3.50
2022-08-25T06:41:39.044Z,3.42
2022-08-25T06:44:07.230Z,3.40
2022-08-25T06:46:36.941Z,3.47
2022-08-25T06:49:08.271Z,3.30
2022-08-25T06:51:37.127Z,3.35
2022-08-25T06:54:06.363Z,3.30
2022-08-25T06:56:34.668Z,3.33
2022-08-25T06:59:02.599Z,3.40
2022-08-25T07:01:31.836Z,3.38
2022-08-25T07:04:01.666Z,3.30
2022-08-25T07:06:35.818Z,3.20
2022-08-25T07:09:06.244Z,3.40
2022-08-25T07:11:34.540Z,3.45
2022-08-25T07:14:03.450Z,3.40
2022-08-25T07:16:31.864Z,3.20
2022-08-25T07:19:00.805Z,3.30
2022-08-25T07:21:35.802Z,3.30
2022-08-25T07:24:06.547Z,3.40
2022-08-25T07:26:38.618Z,3.30
2022-08-25T07:29:09.435Z,3.15
2022-08-25T07:31:37.690Z,3.10
2022-08-25T07:34:24.242Z,3.15
2022-08-25T07:36:55.703Z,3.30
2022-08-25T07:39:24.140Z,3.13
2022-08-25T07:41:52.845Z,3.38
2022-08-25T07:44:21.277Z,3.20
2022-08-25T07:46:50.233Z,3.40
2022-08-25T07:49:18.319Z,3.33
2022-08-25T07:52:04.436Z,3.50
2022-08-25T07:54:37.978Z,3.50
2022-08-25T07:57:07.488Z,3.40
2022-08-25T07:59:39.969Z,3.30
2022-08-25T08:02:09.377Z,3.20
2022-08-25T08:04:48.958Z,3.30
2022-08-25T08:07:18.622Z,3.40
2022-08-25T08:09:55.803Z,3.30
2022-08-25T08:12:24.762Z,3.35
2022-08-25T08:14:55.137Z,3.30
2022-08-25T08:17:27.770Z,3.20
2022-08-25T08:19:56.607Z,3.30
2022-08-25T08:22:24.545Z,3.30
2022-08-25T08:24:56.137Z,3.38
2022-08-25T08:27:25.273Z,3.38
2022-08-25T08:29:53.716Z,3.25
2022-08-25T08:32:23.166Z,3.20
2022-08-25T08:34:59.470Z,3.28
2022-08-25T08:37:27.752Z,3.05
2022-08-25T08:39:57.041Z,3.33
2022-08-25T08:42:47.238Z,3.30
2022-08-25T08:45:26.445Z,3.30
2022-08-25T08:48:10.153Z,3.20
2022-08-25T08:50:41.423Z,3.22
2022-08-25T08:53:12.956Z,3.15
2022-08-25T08:55:51.898Z,3.20
2022-08-25T08:58:26.336Z,3.22
2022-08-25T09:00:56.748Z,3.20
2022-08-25T09:03:31.004Z,3.33
2022-08-25T09:06:03.487Z,3.30
2022-08-25T09:08:35.538Z,3.40
2022-08-25T09:11:16.132Z,3.30
2022-08-25T09:14:01.865Z,3.30
2022-08-25T09:17:06.128Z,3.28
2022-08-25T09:19:47.430Z,3.10
2022-08-25T09:22:33.376Z,3.30
2022-08-25T09:25:09.566Z,3.08
2022-08-25T09:27:46.344Z,3.40
2022-08-25T09:30:17.523Z,3.40
2022-08-25T09:35:23.587Z,3.28
2022-08-25T09:37:58.974Z,3.30
2022-08-25T09:40:28.486Z,3.28
2022-08-25T09:42:59.877Z,3.45
2022-08-25T09:45:38.885Z,3.33
2022-08-25T09:48:27.153Z,3.28
2022-08-25T09:51:00.636Z,3.40
2022-08-25T09:53:29.394Z,3.50
2022-08-25T09:56:07.204Z,3.70
2022-08-25T09:58:36.731Z,3.60
2022-08-25T10:01:16.829Z,3.70
2022-08-25T10:04:00.101Z,3.55
2022-08-25T10:06:31.015Z,3.47
2022-08-25T10:09:01.015Z,3.58
2022-08-25T10:11:42.682Z,3.60
2022-08-25T10:14:29.461Z,3.80
2022-08-25T10:17:16.399Z,3.70
2022-08-25T10:19:45.321Z,4.22
2022-08-25T10:22:14.611Z,4.30
2022-08-25T10:24:44.057Z,4.25
2022-08-25T10:27:20.868Z,4.00
2022-08-25T10:30:14.488Z,4.18
2022-08-25T10:33:06.590Z,4.43
2022-08-25T10:35:43.382Z,4.28
2022-08-25T10:38:22.552Z,4.10
2022-08-25T10:41:00.335Z,4.50
2022-08-25T10:43:32.298Z,4.30
2022-08-25T10:46:07.422Z,4.30
2022-08-25T10:48:47.514Z,4.28
2022-08-25T10:51:42.212Z,4.35
2022-08-25T10:54:33.708Z,4.90
2022-08-25T10:57:08.338Z,4.70
2022-08-25T10:59:52.418Z,4.75
2022-08-25T11:02:57.450Z,4.50
2022-08-25T11:05:29.128Z,4.57
2022-08-25T11:08:05.185Z,4.35
2022-08-25T11:10:40.201Z,4.38
2022-08-25T11:13:15.827Z,4.32
2022-08-25T11:16:15.459Z,4.32
2022-08-25T11:18:47.799Z,4.20
2022-08-25T11:21:20.607Z,4.15
2022-08-25T11:23:55.810Z,4.20
2022-08-25T11:26:31.838Z,4.72
2022-08-25T11:29:04.644Z,4.80
2022-08-25T11:31:39.132Z,4.22
2022-08-25T11:34:10.652Z,4.53
2022-08-25T11:36:41.548Z,4.57
2022-08-25T11:39:16.670Z,4.50
2022-08-25T11:41:54.424Z,4.45
2022-08-25T11:44:53.207Z,4.68
2022-08-25T11:47:36.000Z,4.90
2022-08-25T11:50:08.611Z,4.82
2022-08-25T11:52:56.508Z,5.00
2022-08-25T11:55:31.419Z,4.80
2022-08-25T11:58:23.376Z,4.78
2022-08-25T12:00:54.109Z,4.85
2022-08-25T12:03:48.034Z,4.47
2022-08-25T12:06:26.375Z,4.25
2022-08-25T12:09:21.697Z,4.75
2022-08-25T12:11:55.186Z,4.75
2022-08-25T12:14:44.239Z,4.63
2022-08-25T12:17:26.206Z,5.03
2022-08-25T12:19:59.433Z,5.22
2022-08-25T12:22:56.711Z,5.03
2022-08-25T12:25:46.173Z,4.80
2022-08-25T12:28:40.053Z,4.93
2022-08-25T12:31:17.650Z,4.72
2022-08-25T12:33:54.061Z,5.40
2022-08-25T12:36:31.028Z,5.15
2022-08-25T12:39:16.098Z,5.07
2022-08-25T12:41:56.599Z,5.07
2022-08-25T12:44:42.044Z,5.40
2022-08-25T12:47:32.076Z,4.88
2022-08-25T12:50:33.776Z,5.15
2022-08-25T12:53:11.441Z,4.88
2022-08-25T12:55:41.632Z,5.05
2022-08-25T12:58:12.864Z,4.93
2022-08-25T13:00:53.942Z,5.50
2022-08-25T13:03:47.527Z,5.38
2022-08-25T13:06:36.738Z,5.22
2022-08-25T13:09:46.784Z,5.07
2022-08-25T13:12:17.637Z,5.05
2022-08-25T13:14:54.628Z,5.45
2022-08-25T13:17:30.398Z,5.25
2022-08-25T13:20:19.264Z,5.40
2022-08-25T13:22:50.303Z,5.50
2022-08-25T13:25:32.029Z,5.63
2022-08-25T13:28:02.035Z,5.65
2022-08-25T13:30:33.569Z,5.75
2022-08-25T13:33:01.955Z,6.03
2022-08-25T13:35:37.017Z,6.00
2022-08-25T13:38:13.905Z,6.43
2022-08-25T13:40:43.307Z,5.82
2022-08-25T13:43:13.837Z,6.18
2022-08-25T13:45:45.163Z,6.15
2022-08-25T13:48:22.580Z,6.35
2022-08-25T13:50:52.956Z,6.68
2022-08-25T13:53:25.380Z,6.85
2022-08-25T13:55:57.048Z,7.47
2022-08-25T13:58:39.655Z,7.57
2022-08-25T14:01:23.871Z,7.30
2022-08-25T14:04:51.606Z,7.38
2022-08-25T14:07:34.093Z,7.10
2022-08-25T14:10:12.469Z,7.72
2022-08-25T14:12:44.813Z,7.82
2022-08-25T14:15:32.030Z,7.05
2022-08-25T14:18:07.590Z,7.95
2022-08-25T14:20:37.145Z,7.38
2022-08-25T14:23:10.120Z,7.18
2022-08-25T14:25:40.434Z,7.20
2022-08-25T14:28:16.452Z,6.60
2022-08-25T14:30:47.863Z,7.53
2022-08-25T14:33:19.819Z,7.60
2022-08-25T14:35:49.388Z,8.10
2022-08-25T14:38:17.561Z,8.32
2022-08-25T14:40:45.854Z,9.13
2022-08-25T14:43:15.100Z,8.48
2022-08-25T14:45:46.570Z,7.78
2022-08-25T14:48:24.348Z,8.15
2022-08-25T14:50:52.319Z,8.95
2022-08-25T14:53:20.078Z,8.50
2022-08-25T14:55:47.908Z,7.93
2022-08-25T14:58:15.710Z,7.60
2022-08-25T15:00:46.134Z,7.38
2022-08-25T15:03:19.133Z,8.23
2022-08-25T15:05:48.322Z,8.50
2022-08-25T15:08:33.616Z,8.52
2022-08-25T15:11:01.661Z,6.72
2022-08-25T15:13:36.649Z,7.88
2022-08-25T15:16:05.538Z,7.47
2022-08-25T15:18:34.784Z,7.75
2022-08-25T15:21:03.093Z,7.63
2022-08-25T15:23:30.898Z,7.40
2022-08-25T15:26:01.774Z,8.32
2022-08-25T15:28:33.050Z,8.23
2022-08-25T15:31:00.787Z,7.55
2022-08-25T15:33:28.584Z,7.18
2022-08-25T15:35:58.969Z,7.40
2022-08-25T15:38:28.399Z,7.85
2022-08-25T15:40:56.127Z,7.90
2022-08-25T15:43:25.667Z,8.23
2022-08-25T15:45:53.618Z,8.05
2022-08-25T15:48:22.173Z,8.70
2022-08-25T15:50:53.851Z,9.07
2022-08-25T15:53:23.711Z,8.02
2022-08-25T15:55:52.293Z,6.78
2022-08-25T15:58:22.076Z,7.33
2022-08-25T16:00:56.279Z,6.97
2022-08-25T16:03:24.646Z,6.35
2022-08-25T16:05:52.458Z,7.18
2022-08-25T16:08:20.468Z,7.25
2022-08-25T16:10:49.825Z,7.88
2022-08-25T16:13:18.548Z,6.97
2022-08-25T16:15:52.944Z,6.60
2022-08-25T16:18:21.161Z,6.45
2022-08-25T16:20:49.627Z,6.20
2022-08-25T16:23:19.060Z,5.85
2022-08-25T16:25:49.500Z,6.18
2022-08-25T16:28:20.859Z,6.00
2022-08-25T16:30:52.624Z,5.20
2022-08-25T16:33:20.876Z,5.70
2022-08-25T16:35:49.319Z,5.57
2022-08-25T16:38:17.781Z,5.35
2022-08-25T16:40:46.615Z,5.32
2022-08-25T16:43:17.706Z,5.13
2022-08-25T16:45:45.497Z,5.22
2022-08-25T16:48:14.304Z,5.00
2022-08-25T16:50:42.352Z,4.85
2022-08-25T16:53:27.583Z,4.53
2022-08-25T16:56:01.899Z,4.50
2022-08-25T16:58:33.106Z,4.32
2022-08-25T17:01:06.185Z,4.57
2022-08-25T17:03:37.191Z,4.38
2022-08-25T17:06:05.171Z,4.38
2022-08-25T17:08:33.322Z,4.70
2022-08-25T17:11:07.553Z,4.70
2022-08-25T17:13:38.302Z,4.63
2022-08-25T17:16:06.758Z,4.45
2022-08-25T17:18:35.120Z,4.30
2022-08-25T17:21:05.714Z,4.20
2022-08-25T17:23:34.109Z,4.30
2022-08-25T17:26:02.402Z,4.43
2022-08-25T17:28:30.625Z,4.30
2022-08-25T17:30:59.894Z,4.60
2022-08-25T17:33:28.083Z,4.22
2022-08-25T17:35:57.345Z,4.50
2022-08-25T17:38:27.628Z,4.20
2022-08-25T17:43:26.179Z,4.40
2022-08-25T17:45:56.212Z,4.10
2022-08-25T17:48:26.728Z,4.32
2022-08-25T17:50:55.158Z,4.50
2022-08-25T17:53:23.192Z,4.93
2022-08-25T17:55:59.113Z,4.90
2022-08-25T17:58:28.404Z,4.68
2022-08-25T18:00:57.237Z,5.10
2022-08-25T18:03:29.995Z,5.10
2022-08-25T18:05:59.527Z,5.00
2022-08-25T18:08:32.126Z,5.20
2022-08-25T18:11:03.855Z,5.07
2022-08-25T18:13:32.680Z,4.78
2022-08-25T18:16:01.603Z,5.15
2022-08-25T18:18:34.418Z,5.30
2022-08-25T18:21:03.268Z,5.20
2022-08-25T18:23:31.317Z,5.00
2022-08-25T18:26:00.794Z,5.25
2022-08-25T18:28:31.017Z,4.60
2022-08-25T18:30:59.287Z,5.10
2022-08-25T18:33:30.124Z,5.10
2022-08-25T18:36:00.620Z,5.18
2022-08-25T18:38:46.520Z,5.33
2022-08-25T18:41:15.915Z,4.97
2022-08-25T18:43:44.671Z,4.95
2022-08-25T18:46:13.663Z,4.95
2022-08-25T18:48:45.932Z,5.03
2022-08-25T18:51:17.433Z,4.93
2022-08-25T18:53:54.658Z,4.80
2022-08-25T18:56:28.145Z,4.95
2022-08-25T18:58:56.618Z,5.18
2022-08-25T19:01:25.862Z,4.78
2022-08-25T19:03:54.517Z,5.00
2022-08-25T19:06:25.033Z,4.70
2022-08-25T19:08:56.007Z,4.50
2022-08-25T19:11:24.343Z,5.10
2022-08-25T19:13:53.156Z,5.20
2022-08-25T19:16:33.378Z,5.20
2022-08-25T19:19:02.563Z,4.90
2022-08-25T19:21:35.173Z,5.30
2022-08-25T19:26:34.584Z,5.18
2022-08-25T19:29:03.155Z,5.20
2022-08-25T19:31:33.579Z,5.43
2022-08-25T19:34:03.014Z,5.20
2022-08-25T19:36:35.074Z,4.72
2022-08-25T19:39:03.503Z,5.28
2022-08-25T19:41:32.529Z,5.25
2022-08-25T19:44:03.125Z,5.30
2022-08-25T19:46:35.749Z,5.20
2022-08-25T19:49:08.025Z,5.20
2022-08-25T19:51:38.837Z,5.35
2022-08-25T19:54:09.243Z,5.13
2022-08-25T19:56:44.047Z,5.47
2022-08-25T19:59:25.001Z,5.60
2022-08-25T20:01:53.210Z,5.32
2022-08-25T20:04:24.524Z,5.60
2022-08-25T20:06:55.331Z,5.10
2022-08-25T20:09:39.629Z,5.85
2022-08-25T20:12:10.571Z,5.40
2022-08-25T20:14:39.239Z,5.60
2022-08-25T20:17:24.041Z,5.65
2022-08-25T20:19:54.464Z,5.35
2022-08-25T20:22:26.915Z,5.13
2022-08-25T20:24:57.869Z,4.82
2022-08-25T20:27:29.537Z,4.40
2022-08-25T20:29:57.977Z,4.80
2022-08-25T20:32:26.347Z,4.78
2022-08-25T20:34:57.331Z,4.60
2022-08-25T20:37:27.442Z,4.53
2022-08-25T20:39:55.602Z,4.78
2022-08-25T20:42:23.425Z,4.80
2022-08-25T20:44:51.622Z,4.75
2022-08-25T20:47:21.311Z,4.60
2022-08-25T20:49:51.330Z,4.68
2022-08-25T20:52:20.357Z,4.72
2022-08-25T20:54:51.244Z,4.70
2022-08-25T20:57:25.503Z,4.82
2022-08-25T20:59:55.088Z,4.72
2022-08-25T21:02:23.898Z,4.63
2022-08-25T21:04:52.326Z,4.60
2022-08-25T21:07:20.595Z,4.32
2022-08-25T21:09:50.489Z,4.40
2022-08-25T21:12:20.263Z,4.28
2022-08-25T21:14:49.272Z,4.38
2022-08-25T21:17:19.108Z,4.38
2022-08-25T21:22:17.522Z,4.07
2022-08-25T21:24:45.994Z,4.40
2022-08-25T21:27:15.707Z,4.15
2022-08-25T21:29:44.651Z,4.07
2022-08-25T21:32:22.707Z,4.05
2022-08-25T21:34:53.039Z,4.20
2022-08-25T21:37:21.826Z,3.93
2022-08-25T21:39:50.035Z,4.03
2022-08-25T21:42:20.017Z,3.95
2022-08-25T21:44:48.091Z,4.05
2022-08-25T21:47:21.231Z,4.07
2022-08-25T21:49:50.170Z,3.97
2022-08-25T21:52:18.566Z,4.00
2022-08-25T21:54:46.685Z,4.07
2022-08-25T21:57:14.787Z,4.00
2022-08-25T21:59:44.493Z,3.88
2022-08-25T22:02:14.084Z,4.18
2022-08-25T22:04:42.782Z,4.10
2022-08-25T22:07:11.159Z,3.85
2022-08-25T22:09:41.274Z,4.00
2022-08-25T22:12:09.706Z,3.90
2022-08-25T22:14:38.322Z,3.95
2022-08-25T22:17:13.514Z,3.80
2022-08-25T22:19:45.675Z,3.90
2022-08-25T22:22:15.730Z,4.00
2022-08-25T22:24:48.849Z,3.88
2022-08-25T22:27:17.207Z,3.88
2022-08-25T22:29:45.710Z,3.90
2022-08-25T22:32:15.349Z,3.80
2022-08-25T22:34:43.655Z,3.90
2022-08-25T22:37:12.159Z,4.03
2022-08-25T22:39:40.456Z,3.92
2022-08-25T22:42:08.859Z,3.90
2022-08-25T22:44:39.072Z,3.92
2022-08-25T22:47:09.512Z,4.15
2022-08-25T22:49:41.426Z,4.07
2022-08-25T22:52:11.462Z,4.00
2022-08-25T22:54:41.238Z,3.80
2022-08-25T22:57:09.365Z,3.65
2022-08-25T22:59:44.201Z,3.80
2022-08-25T23:02:12.376Z,4.00
2022-08-25T23:04:43.511Z,3.90
2022-08-25T23:07:28.180Z,4.00
2022-08-25T23:09:56.260Z,4.00
2022-08-25T23:12:26.339Z,4.20
2022-08-25T23:14:54.832Z,3.80
2022-08-25T23:17:23.444Z,3.95
2022-08-25T23:19:52.951Z,3.97
2022-08-25T23:22:20.052Z,3.80
2022-08-25T23:24:52.068Z,4.00
2022-08-25T23:27:22.639Z,3.72
2022-08-25T23:29:51.499Z,4.10
2022-08-25T23:32:19.849Z,4.00
2022-08-25T23:34:48.309Z,3.92
2022-08-25T23:37:18.968Z,3.70
2022-08-25T23:39:49.531Z,3.70
2022-08-25T23:42:18.456Z,3.90
2022-08-25T23:44:46.515Z,3.90
2022-08-25T23:47:14.262Z,3.80
2022-08-25T23:49:42.174Z,3.60
2022-08-25T23:52:10.127Z,3.85
2022-08-25T23:54:39.927Z,3.90
2022-08-25T23:57:07.782Z,4.00
2022-08-25T23:59:37.454Z,3.97
